Flight Track Log - Related Links

Times and Time Zones

All times are in EDT time to prevent confusion due to time zone crossing. See the AAL1459 flight status page for this flight to view local times or setup timezone preferences in your user account.

Time Position Orientation Groundspeed Altitude Reporting Facility
EDT Latitude Longitude Course Direction KTS MPH feet Rate Location/Type
Mon 07:44:31 PM 42.0333 -87.9833 270° West 203 234 2,900  Level Chicago TRACON
Mon 07:45:31 PM 42.1000 -88.0333 331° Northwest 269 310 5,100 2,495 Climbing Chicago TRACON
Mon 07:46:00 PM 41.9667 -88.3803 270° West  Level FlightAware Approximate
Mon 07:46:12 PM 42.1344 -88.0692 322° Northwest 264 304 7,100  Level Chicago Center
Mon 07:47:00 PM 41.9667 -88.5404 270° West  Level FlightAware Approximate
Mon 07:47:14 PM 42.1419 -88.1786 275° West 307 353 10,000  Level Chicago Center
Mon 07:48:00 PM 41.9667 -88.7005 270° West  Level FlightAware Approximate
Mon 07:48:16 PM 42.1339 -88.2933 265° West 312 359 12,500  Level Chicago Center
Mon 07:49:00 PM 41.9668 -88.8607 270° West  Level FlightAware Approximate
Mon 07:49:18 PM 42.1308 -88.4131 268° West 320 368 15,500  Level Chicago Center
Mon 07:50:00 PM 41.9669 -89.0209 270° West  Level FlightAware Approximate
Mon 07:50:20 PM 42.2039 -88.5158 314° West 323 372 18,400  Level Chicago Center
Mon 07:51:22 PM 42.2097 -88.6428 274° West 345 397 20,800 1,355 Climbing Chicago Center
Mon 07:52:24 PM 42.2042 -88.7806 267° West 360 414 21,200 1,306 Climbing Chicago Center
Mon 07:53:26 PM 42.1967 -88.9356 266° West 388 447 23,500 2,129 Climbing Chicago Center
Mon 07:54:28 PM 42.1567 -89.0736 249° West 413 475 25,600 2,226 Climbing Chicago Center
Mon 07:55:30 PM 42.0992 -89.2286 243° Southwest 411 473 28,100 1,984 Climbing Chicago Center
Mon 07:56:32 PM 42.1061 -89.3756 274° West 391 450 29,700 919 Climbing Chicago Center
Mon 07:57:34 PM 42.1150 -89.5364 274° West 426 490 30,000 823 Climbing Chicago Center
Mon 07:58:36 PM 42.1267 -89.7075 275° West 449 517 31,400 1,452 Climbing Chicago Center
Mon 07:59:38 PM 42.1381 -89.8753 275° West 450 518 33,000 1,742 Climbing Chicago Center
Mon 08:00:40 PM 42.1519 -90.0361 277° West 437 503 35,000 1,597 Climbing Chicago Center
Mon 08:01:42 PM 42.1675 -90.1908 278° West 425 489 36,300 1,016 Climbing Chicago Center
Mon 08:02:44 PM 42.1875 -90.3769 278° West 422 486 37,100 677 Climbing Chicago Center
Mon 08:03:46 PM 42.2094 -90.5350 281° West 431 496 37,700 435 Climbing Chicago Center
Mon 08:04:48 PM 42.2292 -90.6950 280° West 435 501 38,000 145 Climbing Chicago Center
Mon 08:05:50 PM 42.2489 -90.8536 280° West 433 498 38,000  Level Chicago Center
Mon 08:06:52 PM 42.2658 -91.0136 278° West 433 498 38,000  Level Chicago Center
Mon 08:07:54 PM 42.2889 -91.2050 279° West 434 499 38,000  Level Chicago Center
Mon 08:08:56 PM 42.3081 -91.3631 279° West 429 494 38,000  Level Chicago Center
Mon 08:09:58 PM 42.3261 -91.5225 279° West 431 496 38,000  Level Chicago Center
Mon 08:11:00 PM 42.3450 -91.6844 279° West 434 499 38,000  Level Chicago Center
Mon 08:12:02 PM 42.3633 -91.8483 279° West 440 506 38,000  Level Chicago Center
Mon 08:13:04 PM 42.3817 -92.0122 279° West 442 509 38,000  Level Chicago Center
Mon 08:14:06 PM 42.4003 -92.1750 279° West 441 507 38,000  Level Chicago Center
Mon 08:15:07 PM 42.4214 -92.3714 278° West 443 510 38,000  Level Chicago Center
Mon 08:16:09 PM 42.4375 -92.5322 278° West 437 503 38,000  Level Chicago Center
Mon 08:17:11 PM 42.4550 -92.6942 278° West 437 503 38,000  Level Chicago Center
Mon 08:18:13 PM 42.4719 -92.8564 278° West 438 504 38,000  Level Chicago Center
Mon 08:19:15 PM 42.4878 -93.0225 277° West 445 512 38,000  Level Chicago Center
Mon 08:20:17 PM 42.5094 -93.2192 279° West 444 511 38,000  Level Chicago Center
Mon 08:21:19 PM 42.5244 -93.3858 277° West 449 517 38,000  Level Chicago Center
Mon 08:22:29 PM 42.5467 -93.5850 279° West 447 514 38,000  Level Minneapolis Center
Mon 08:23:31 PM 42.5611 -93.7511 277° West 449 517 38,000  Level Minneapolis Center
Mon 08:24:33 PM 42.5778 -93.9172 278° West 449 517 38,000  Level Minneapolis Center
Mon 08:25:35 PM 42.5933 -94.0844 277° West 451 519 38,000  Level Minneapolis Center
Mon 08:26:37 PM 42.6083 -94.2511 277° West 451 519 38,000  Level Minneapolis Center
Mon 08:27:39 PM 42.6100 -94.4553 271° West 455 524 38,000  Level Minneapolis Center
Mon 08:28:40 PM 42.6072 -94.6133 269° West 454 522 38,000  Level Minneapolis Center
Mon 08:29:42 PM 42.6042 -94.7836 269° West 453 521 38,000  Level Minneapolis Center
Mon 08:30:44 PM 42.6022 -94.9567 269° West 457 526 38,000  Level Minneapolis Center
Mon 08:31:46 PM 42.5967 -95.1594 268° West 452 520 38,000  Level Minneapolis Center
Mon 08:32:48 PM 42.5939 -95.3286 269° West 451 519 38,000  Level Minneapolis Center
Mon 08:33:50 PM 42.5897 -95.4989 268° West 452 520 38,000  Level Minneapolis Center
Mon 08:34:52 PM 42.5856 -95.6672 268° West 450 518 38,000  Level Minneapolis Center
Mon 08:35:53 PM 42.5819 -95.8331 268° West 446 513 38,000  Level Minneapolis Center
Mon 08:36:55 PM 42.5767 -95.9986 268° West 443 510 38,000  Level Minneapolis Center
Mon 08:37:57 PM 42.5711 -96.1989 268° West 444 511 38,000  Level Minneapolis Center
Mon 08:38:59 PM 42.5661 -96.3644 268° West 442 509 38,000  Level Minneapolis Center
Mon 08:40:01 PM 42.5603 -96.5286 267° West 441 507 38,000  Level Minneapolis Center
Mon 08:41:03 PM 42.5556 -96.6933 268° West 440 506 38,000  Level Minneapolis Center
Mon 08:42:05 PM 42.5500 -96.8603 267° West 443 510 38,000  Level Minneapolis Center
Mon 08:43:07 PM 42.5436 -97.0253 267° West 441 507 38,000  Level Minneapolis Center
Mon 08:44:08 PM 42.5364 -97.2250 267° West 442 509 38,000  Level Minneapolis Center
Mon 08:45:10 PM 42.5294 -97.3908 267° West 443 510 38,000  Level Minneapolis Center
Mon 08:46:12 PM 42.5225 -97.5581 267° West 444 511 38,000  Level Minneapolis Center
Mon 08:47:14 PM 42.5153 -97.7253 267° West 446 513 38,000  Level Minneapolis Center
Mon 08:48:16 PM 42.5081 -97.9064 267° West 447 514 38,000  Level Minneapolis Center
Mon 08:49:18 PM 42.5000 -98.0750 266° West 450 518 38,000  Level Minneapolis Center
Mon 08:50:20 PM 42.4925 -98.2439 267° West 449 517 38,000  Level Minneapolis Center
Mon 08:51:22 PM 42.4842 -98.4131 266° West 451 519 38,000  Level Minneapolis Center
Mon 08:52:24 PM 42.4750 -98.6136 277° West 448 516 38,000  Level Minneapolis Center
Mon 08:53:26 PM 42.4622 -98.7806 264° West 448 516 38,000  Level Minneapolis Center
Mon 08:54:28 PM 42.4453 -98.9478 262° West 450 518 38,000  Level Minneapolis Center
Mon 08:55:30 PM 42.4283 -99.1153 262° West 450 518 38,000  Level Minneapolis Center
Mon 08:56:32 PM 42.4108 -99.2819 262° West 450 518 38,000  Level Minneapolis Center
Mon 08:57:13 PM 42.3958 -99.4147 261° West 450 518 38,000  Level Denver Center
Mon 08:58:15 PM 42.3786 -99.5797 262° West 447 514 38,000  Level Denver Center
Mon 08:59:16 PM 42.3619 -99.7431 262° West 447 514 38,000  Level Denver Center
Mon 09:00:18 PM 42.3414 -99.9267 261° West 445 512 38,000  Level Denver Center
Mon 09:01:20 PM 42.3244 -100.0836 262° West 443 510 38,000  Level Denver Center
Mon 09:02:21 PM 42.3069 -100.2417 262° West 446 513 38,000  Level Denver Center
Mon 09:03:23 PM 42.2853 -100.4261 261° West 446 513 38,000  Level Denver Center
Mon 09:04:25 PM 42.2675 -100.5831 261° West 443 510 38,000  Level Denver Center
Mon 09:05:38 PM 42.2467 -100.7667 261° West 445 512 38,000  Level Denver Center
Mon 09:06:40 PM 42.2222 -100.9719 261° West 438 504 38,000  Level Denver Center
Mon 09:07:42 PM 42.2033 -101.1281 261° West 441 507 38,000  Level Denver Center
Mon 09:08:43 PM 42.1847 -101.2839 261° West 440 506 38,000  Level Denver Center
Mon 09:09:45 PM 42.1625 -101.4672 261° West 443 510 38,000  Level Denver Center
Mon 09:10:47 PM 42.1428 -101.6247 260° West 446 513 38,000  Level Denver Center
Mon 09:11:48 PM 42.1197 -101.8056 260° West 442 509 38,000  Level Denver Center
Mon 09:12:50 PM 42.1003 -101.9614 261° West 442 509 38,000  Level Denver Center
Mon 09:13:52 PM 42.0772 -102.1417 260° West 441 507 38,000  Level Denver Center
Mon 09:14:53 PM 42.0553 -102.3033 260° West 443 510 38,000  Level Denver Center
Mon 09:15:55 PM 42.0350 -102.4594 260° West 443 510 38,000  Level Denver Center
Mon 09:16:57 PM 42.0150 -102.6419 262° West 440 506 38,000  Level Denver Center
Mon 09:17:58 PM 42.0147 -102.7956 270° West 429 494 38,000  Level Denver Center
Mon 09:19:00 PM 42.0125 -102.9753 269° West 430 495 38,000  Level Denver Center
Mon 09:20:01 PM 42.0103 -103.1294 269° West 430 495 38,000  Level Denver Center
Mon 09:21:03 PM 42.0086 -103.2808 269° West 425 489 38,000  Level Denver Center
Mon 09:22:05 PM 42.0050 -103.4597 269° West 427 491 38,000  Level Denver Center
Mon 09:23:06 PM 42.0028 -103.6128 269° West 427 491 38,000  Level Denver Center
Mon 09:24:08 PM 41.9992 -103.7911 268° West 428 493 38,000  Level Denver Center
Mon 09:25:10 PM 41.9956 -103.9442 268° West 428 493 38,000  Level Denver Center
Mon 09:26:12 PM 41.9925 -104.0969 269° West 426 490 38,000  Level Denver Center
Mon 09:27:13 PM 41.9892 -104.2511 268° West 430 495 38,000  Level Denver Center
Mon 09:28:15 PM 41.9850 -104.4294 268° West 425 489 38,000  Level Denver Center
Mon 09:29:17 PM 41.9803 -104.6061 268° West 422 486 38,000  Level Denver Center
Mon 09:30:18 PM 41.9764 -104.7575 268° West 421 484 38,000  Level Denver Center
Mon 09:31:20 PM 41.9725 -104.9097 268° West 423 487 38,000  Level Denver Center
Mon 09:32:22 PM 41.9667 -105.0881 268° West 426 490 38,000  Level Denver Center
Mon 09:33:24 PM 41.9625 -105.2411 268° West 427 491 38,000  Level Denver Center
Mon 09:34:26 PM 41.9569 -105.4208 268° West 430 495 38,000  Level Denver Center
Mon 09:35:27 PM 41.9508 -105.5722 267° West 425 489 38,000  Level Denver Center
Mon 09:36:29 PM 41.9439 -105.7533 267° West 433 498 38,000  Level Denver Center
Mon 09:37:31 PM 41.9397 -105.9078 268° West 433 498 38,000  Level Denver Center
Mon 09:38:33 PM 41.9317 -106.0600 266° West 428 493 38,000  Level Denver Center
Mon 09:39:47 PM 41.9242 -106.2639 267° West 427 491 38,000  Level Denver Center
Mon 09:40:49 PM 41.9189 -106.4444 268° West 433 498 38,000  Level Denver Center
Mon 09:41:51 PM 41.9125 -106.5886 267° West 429 494 38,000  Level Denver Center
Mon 09:42:52 PM 41.9028 -106.7642 266° West 423 487 38,000  Level Denver Center
Mon 09:43:54 PM 41.8969 -106.9172 267° West 428 493 38,000  Level Denver Center
Mon 09:44:56 PM 41.8892 -107.0936 267° West 425 489 38,000  Level Denver Center
Mon 09:45:58 PM 41.8811 -107.2447 266° West 425 489 38,000  Level Denver Center
Mon 09:47:00 PM 41.8731 -107.4203 267° West 423 487 38,000  Level Denver Center
Mon 09:48:08 PM 41.8647 -107.5983 266° West 426 490 38,000  Level Salt Lake Center
Mon 09:49:03 PM 41.8547 -107.7472 265° West 424 488 38,000  Level Denver Center
Mon 09:50:05 PM 41.8481 -107.8997 267° West 427 491 38,000  Level Denver Center
Mon 09:51:07 PM 41.8378 -108.0756 266° West 424 488 38,000  Level Denver Center
Mon 09:52:09 PM 41.8294 -108.2236 266° West 420 483 38,000  Level Denver Center
Mon 09:53:11 PM 41.8208 -108.3742 266° West 423 487 38,000  Level Denver Center
Mon 09:54:12 PM 41.8100 -108.5514 265° West 427 491 38,000  Level Denver Center
Mon 09:55:19 PM 41.7994 -108.7303 266° West 428 493 38,000  Level Salt Lake Center
Mon 09:56:20 PM 41.7900 -108.8828 265° West 432 497 38,000  Level Salt Lake Center
Mon 09:57:22 PM 41.7786 -109.0603 265° West 432 497 38,000  Level Salt Lake Center
Mon 09:58:23 PM 41.7686 -109.2150 265° West 437 503 38,000  Level Salt Lake Center
Mon 09:59:25 PM 41.7558 -109.3933 265° West 436 502 38,000 634 Level Salt Lake Center
Mon 10:00:26 PM 41.7442 -109.5453 264° West 433 498 39,300 927 Climbing Salt Lake Center
Mon 10:01:28 PM 41.7322 -109.7186 265° West 423 487 39,900 339 Climbing Salt Lake Center
Mon 10:02:30 PM 41.7217 -109.8703 265° West 428 493 40,000 49 Climbing Salt Lake Center
Mon 10:03:31 PM 41.7078 -110.0489 264° West 433 498 40,000  Level Salt Lake Center
Mon 10:04:33 PM 41.6961 -110.1997 264° West 429 494 40,000  Level Salt Lake Center
Mon 10:05:34 PM 41.7122 -110.3478 278° West 421 484 40,000  Level Salt Lake Center
Mon 10:06:36 PM 41.7489 -110.5158 286° West 422 486 40,000  Level Salt Lake Center
Mon 10:07:37 PM 41.7544 -110.6669 273° West 433 498 40,000  Level Salt Lake Center
Mon 10:08:39 PM 41.7344 -110.8456 262° West 435 501 40,000  Level Salt Lake Center
Mon 10:09:40 PM 41.7183 -110.9972 262° West 437 503 40,000  Level Salt Lake Center
Mon 10:10:42 PM 41.7003 -111.1553 261° West 433 498 40,000  Level Salt Lake Center
Mon 10:11:43 PM 41.6817 -111.3119 261° West 430 495 40,000  Level Salt Lake Center
Mon 10:12:45 PM 41.6631 -111.4697 261° West 431 496 40,000  Level Salt Lake Center
Mon 10:13:46 PM 41.6417 -111.6603 262° West 436 502 40,000  Level Salt Lake Center
Mon 10:14:48 PM 41.6228 -111.8192 261° West 436 502 40,000  Level Salt Lake Center
Mon 10:15:49 PM 41.6036 -111.9775 261° West 436 502 40,000  Level Salt Lake Center
Mon 10:16:51 PM 41.5844 -112.1372 261° West 440 506 40,000  Level Salt Lake Center
Mon 10:17:53 PM 41.5647 -112.2972 261° West 440 506 40,000  Level Salt Lake Center
Mon 10:18:54 PM 41.5447 -112.4589 261° West 443 510 40,000  Level Salt Lake Center
Mon 10:19:56 PM 41.5200 -112.6522 260° West 443 510 40,000  Level Salt Lake Center
Mon 10:20:57 PM 41.5000 -112.8150 261° West 446 513 40,000  Level Salt Lake Center
Mon 10:21:59 PM 41.4781 -112.9769 260° West 446 513 40,000  Level Salt Lake Center
Mon 10:23:01 PM 41.4575 -113.1389 260° West 445 512 40,000  Level Salt Lake Center
Mon 10:24:02 PM 41.4353 -113.3006 260° West 444 511 40,000  Level Salt Lake Center
Mon 10:25:04 PM 41.4136 -113.4633 260° West 447 514 40,000  Level Salt Lake Center
Mon 10:26:06 PM 41.3911 -113.6267 260° West 448 516 40,000  Level Salt Lake Center
Mon 10:27:07 PM 41.3639 -113.8231 260° West 450 518 40,000  Level Salt Lake Center
Mon 10:28:09 PM 41.3294 -113.9842 254° West 453 521 40,000  Level Salt Lake Center
Mon 10:29:10 PM 41.2878 -114.1428 251° West 454 522 40,000  Level Salt Lake Center
Mon 10:30:12 PM 41.2486 -114.3019 252° West 455 524 40,000  Level Salt Lake Center
Mon 10:31:14 PM 41.2111 -114.4617 253° West 455 524 40,000  Level Salt Lake Center
Mon 10:32:15 PM 41.1711 -114.6217 252° West 457 526 40,000  Level Salt Lake Center
Mon 10:33:17 PM 41.1311 -114.7794 251° West 455 524 40,000  Level Salt Lake Center
Mon 10:34:19 PM 41.0856 -114.9672 252° West 454 522 40,000  Level Salt Lake Center
Mon 10:35:20 PM 41.0461 -115.1178 251° West 453 521 40,000  Level Salt Lake Center
Mon 10:36:22 PM 41.0064 -115.2678 251° West 452 520 40,000  Level Salt Lake Center
Mon 10:37:23 PM 40.9611 -115.4444 251° West 454 522 40,000  Level Salt Lake Center
Mon 10:38:25 PM 40.9214 -115.5944 251° West 453 521 40,000  Level Salt Lake Center
Mon 10:39:27 PM 40.8778 -115.7694 252° West 450 518 40,000  Level Salt Lake Center
Mon 10:40:28 PM 40.8389 -115.9200 251° West 451 519 40,000  Level Salt Lake Center
Mon 10:41:30 PM 40.7919 -116.0947 251° West 453 521 40,000  Level Salt Lake Center
Mon 10:42:31 PM 40.7522 -116.2436 251° West 450 518 40,000  Level Salt Lake Center
Mon 10:43:33 PM 40.7133 -116.3911 251° West 447 514 40,000  Level Salt Lake Center
Mon 10:44:34 PM 40.6672 -116.5606 250° West 444 511 40,000  Level Salt Lake Center
Mon 10:45:36 PM 40.6281 -116.7069 251° West 444 511 40,000  Level Salt Lake Center
Mon 10:46:38 PM 40.5828 -116.8783 251° West 449 517 40,000  Level Salt Lake Center
Mon 10:47:39 PM 40.5439 -117.0239 251° West 448 516 40,000  Level Salt Lake Center
Mon 10:48:41 PM 40.5000 -117.1931 251° West 444 511 40,000  Level Salt Lake Center
Mon 10:49:42 PM 40.4617 -117.3364 251° West 438 504 40,000  Level Salt Lake Center
Mon 10:50:44 PM 40.4161 -117.5028 250° West 435 501 40,000  Level Salt Lake Center
Mon 10:51:45 PM 40.3792 -117.6453 251° West 433 498 40,000  Level Salt Lake Center
Mon 10:52:26 PM 40.3533 -117.7431 251° West 443 510 40,000 -118 Level Oakland Center
Mon 10:53:27 PM 40.2786 -117.8931 237° Southwest 438 504 39,800 -1,377 Descending Oakland Center
Mon 10:54:28 PM 40.2039 -118.0192 232° Southwest 447 514 37,200 -2,902 Descending Oakland Center
Mon 10:55:29 PM 40.1275 -118.1564 234° Southwest 468 539 33,900 -3,197 Descending Oakland Center
Mon 10:56:30 PM 40.0497 -118.2944 234° Southwest 472 543 30,700 -2,951 Descending Oakland Center
Mon 10:57:31 PM 39.9750 -118.4247 233° Southwest 452 520 27,900 -2,656 Descending Oakland Center
Mon 10:58:32 PM 39.9036 -118.5461 233° Southwest 427 491 25,300 -2,244 Descending Oakland Center
Mon 10:59:34 PM 39.8339 -118.6650 233° Southwest 415 478 23,300 -2,098 Descending Oakland Center
Mon 11:00:35 PM 39.7536 -118.8047 233° Southwest 406 467 21,000 -1,721 Descending Oakland Center
Mon 11:01:36 PM 39.6864 -118.9200 233° Southwest 403 464 19,800 -1,721 Descending Oakland Center
Mon 11:02:37 PM 39.6194 -119.0339 233° Southwest 403 464 17,500 -2,016 Descending Oakland Center
Mon 11:03:38 PM 39.5542 -119.1444 233° Southwest 393 452 15,700 -1,951 Descending Oakland Center
Mon 11:04:40 PM 39.4919 -119.2506 233° Southwest 375 432 13,500 -1,317 Descending Oakland Center
Mon 11:05:41 PM 39.4314 -119.3542 233° Southwest 366 421 13,000 -639 Descending Oakland Center
Mon 11:06:42 PM 39.3850 -119.4581 240° Southwest 341 392 12,200 -885 Descending Oakland Center
Mon 11:07:43 PM 39.3483 -119.5558 244° Southwest 320 368 11,200 -1,131 Descending Oakland Center
Mon 11:08:44 PM 39.3064 -119.6625 243° Southwest 292 336 9,900 -1,279 Descending Oakland Center

Login

Don't have an account? Register now (free) for customized features, flight alerts, and more!